sensor_id;sensor_type;location;lat;lon;timestamp;pressure;altitude;pressure_sealevel;temperature;humidity
52797;BME280;38666;43.348;12.584;2022-11-15T06:55:09;96105.94;;;6.81;100.00
52797;BME280;38666;43.348;12.584;2022-11-15T06:57:35;96102.72;;;6.99;100.00
52797;BME280;38666;43.348;12.584;2022-11-15T07:00:03;96087.66;;;7.05;100.00
52797;BME280;38666;43.348;12.584;2022-11-15T07:02:28;96070.94;;;7.00;100.00
52797;BME280;38666;43.348;12.584;2022-11-15T07:04:53;96071.47;;;7.13;100.00
52797;BME280;38666;43.348;12.584;2022-11-15T07:07:19;96080.75;;;7.39;100.00
52797;BME280;38666;43.348;12.584;2022-11-15T07:09:44;96087.06;;;7.19;100.00
52797;BME280;38666;43.348;12.584;2022-11-15T07:12:10;96090.22;;;7.21;100.00
52797;BME280;38666;43.348;12.584;2022-11-15T07:14:35;96099.69;;;7.31;100.00
52797;BME280;38666;43.348;12.584;2022-11-15T07:17:03;96086.56;;;7.41;100.00
52797;BME280;38666;43.348;12.584;2022-11-15T07:19:29;96086.66;;;7.48;100.00
52797;BME280;38666;43.348;12.584;2022-11-15T07:21:54;96096.72;;;7.44;100.00
52797;BME280;38666;43.348;12.584;2022-11-15T07:24:20;96088.91;;;7.39;100.00
52797;BME280;38666;43.348;12.584;2022-11-15T07:26:45;96091.63;;;7.39;100.00
52797;BME280;38666;43.348;12.584;2022-11-15T07:29:11;96091.34;;;7.47;100.00
52797;BME280;38666;43.348;12.584;2022-11-15T07:31:36;96086.56;;;7.41;100.00
52797;BME280;38666;43.348;12.584;2022-11-15T07:34:04;96083.88;;;7.41;100.00
52797;BME280;38666;43.348;12.584;2022-11-15T07:36:29;96084.22;;;7.39;100.00
52797;BME280;38666;43.348;12.584;2022-11-15T07:38:54;96088.72;;;7.24;100.00
52797;BME280;38666;43.348;12.584;2022-11-15T07:41:20;96086.22;;;7.12;100.00
52797;BME280;38666;43.348;12.584;2022-11-15T07:43:45;96086.13;;;7.35;100.00
52797;BME280;38666;43.348;12.584;2022-11-15T07:46:11;96083.25;;;7.51;100.00
52797;BME280;38666;43.348;12.584;2022-11-15T07:48:38;96087.88;;;7.51;100.00
52797;BME280;38666;43.348;12.584;2022-11-15T07:51:05;96079.50;;;7.32;100.00
52797;BME280;38666;43.348;12.584;2022-11-15T07:53:31;96081.84;;;7.34;100.00
52797;BME280;38666;43.348;12.584;2022-11-15T07:55:57;96089.13;;;7.26;100.00
52797;BME280;38666;43.348;12.584;2022-11-15T07:58:22;96091.84;;;7.26;100.00
52797;BME280;38666;43.348;12.584;2022-11-15T08:00:47;96092.78;;;7.10;100.00
52797;BME280;38666;43.348;12.584;2022-11-15T08:03:14;96088.09;;;7.07;100.00
52797;BME280;38666;43.348;12.584;2022-11-15T08:05:41;96084.78;;;7.21;100.00
52797;BME280;38666;43.348;12.584;2022-11-15T08:08:08;96091.97;;;7.06;100.00
52797;BME280;38666;43.348;12.584;2022-11-15T08:10:34;96082.09;;;6.94;100.00
52797;BME280;38666;43.348;12.584;2022-11-15T08:13:09;96080.69;;;7.04;100.00
52797;BME280;38666;43.348;12.584;2022-11-15T08:15:35;96077.16;;;7.31;100.00
52797;BME280;38666;43.348;12.584;2022-11-15T08:18:04;96086.81;;;7.59;100.00
52797;BME280;38666;43.348;12.584;2022-11-15T08:20:31;96068.44;;;7.83;100.00
52797;BME280;38666;43.348;12.584;2022-11-15T08:23:01;96064.25;;;7.93;100.00
52797;BME280;38666;43.348;12.584;2022-11-15T08:25:28;96070.13;;;7.95;99.70
52797;BME280;38666;43.348;12.584;2022-11-15T08:27:56;96078.56;;;7.86;100.00
52797;BME280;38666;43.348;12.584;2022-11-15T08:30:22;96075.56;;;7.95;100.00
52797;BME280;38666;43.348;12.584;2022-11-15T08:32:48;96076.97;;;7.81;100.00
52797;BME280;38666;43.348;12.584;2022-11-15T08:35:14;96066.78;;;7.75;100.00
52797;BME280;38666;43.348;12.584;2022-11-15T08:37:40;96063.94;;;7.98;100.00
52797;BME280;38666;43.348;12.584;2022-11-15T08:40:06;96069.66;;;8.27;99.04
52797;BME280;38666;43.348;12.584;2022-11-15T08:42:31;96074.91;;;8.09;98.79
52797;BME280;38666;43.348;12.584;2022-11-15T08:44:57;96064.38;;;8.04;98.75
52797;BME280;38666;43.348;12.584;2022-11-15T08:47:22;96063.88;;;7.94;100.00
52797;BME280;38666;43.348;12.584;2022-11-15T08:49:48;96061.03;;;7.80;100.00
52797;BME280;38666;43.348;12.584;2022-11-15T08:52:14;96067.19;;;7.77;100.00
52797;BME280;38666;43.348;12.584;2022-11-15T08:54:40;96072.50;;;7.66;100.00
52797;BME280;38666;43.348;12.584;2022-11-15T08:57:06;96075.41;;;7.80;100.00
52797;BME280;38666;43.348;12.584;2022-11-15T08:59:31;96067.66;;;7.82;100.00
52797;BME280;38666;43.348;12.584;2022-11-15T09:01:57;96053.44;;;7.62;100.00
52797;BME280;38666;43.348;12.584;2022-11-15T09:04:22;96051.94;;;7.65;100.00
52797;BME280;38666;43.348;12.584;2022-11-15T09:06:47;96042.72;;;7.77;100.00
52797;BME280;38666;43.348;12.584;2022-11-15T09:09:14;96054.63;;;7.99;100.00
52797;BME280;38666;43.348;12.584;2022-11-15T09:11:39;96055.00;;;7.98;100.00
52797;BME280;38666;43.348;12.584;2022-11-15T09:14:04;96056.09;;;7.93;100.00
52797;BME280;38666;43.348;12.584;2022-11-15T09:16:30;96049.25;;;8.06;100.00
52797;BME280;38666;43.348;12.584;2022-11-15T09:18:56;96050.66;;;7.93;100.00
52797;BME280;38666;43.348;12.584;2022-11-15T09:21:21;96039.13;;;8.07;100.00
52797;BME280;38666;43.348;12.584;2022-11-15T09:23:50;96036.91;;;8.16;100.00
52797;BME280;38666;43.348;12.584;2022-11-15T09:26:16;96030.66;;;8.16;100.00
52797;BME280;38666;43.348;12.584;2022-11-15T09:28:41;96033.81;;;8.18;100.00
52797;BME280;38666;43.348;12.584;2022-11-15T09:31:07;96025.44;;;8.41;100.00
52797;BME280;38666;43.348;12.584;2022-11-15T09:33:33;96029.47;;;8.59;98.16
52797;BME280;38666;43.348;12.584;2022-11-15T09:36:06;96026.41;;;8.64;96.03
52797;BME280;38666;43.348;12.584;2022-11-15T09:38:32;96029.19;;;8.71;97.55
52797;BME280;38666;43.348;12.584;2022-11-15T09:47:23;95997.22;;;9.39;95.68
52797;BME280;38666;43.348;12.584;2022-11-15T09:49:22;96006.53;;;9.31;93.25
52797;BME280;38666;43.348;12.584;2022-11-15T09:51:53;96005.78;;;9.37;91.68
52797;BME280;38666;43.348;12.584;2022-11-15T09:54:33;95997.13;;;9.10;94.36
52797;BME280;38666;43.348;12.584;2022-11-15T09:57:15;96005.53;;;8.83;96.69
52797;BME280;38666;43.348;12.584;2022-11-15T10:02:33;95997.59;;;8.59;99.73
52797;BME280;38666;43.348;12.584;2022-11-15T10:05:02;95995.34;;;8.69;100.00
52797;BME280;38666;43.348;12.584;2022-11-15T10:07:52;95998.13;;;8.79;98.17
52797;BME280;38666;43.348;12.584;2022-11-15T10:11:01;95992.34;;;8.88;99.15
52797;BME280;38666;43.348;12.584;2022-11-15T10:13:24;95987.13;;;9.47;97.46
52797;BME280;38666;43.348;12.584;2022-11-15T10:15:53;95984.91;;;10.26;91.87
52797;BME280;38666;43.348;12.584;2022-11-15T10:21:16;95972.97;;;11.31;81.11
52797;BME280;38666;43.348;12.584;2022-11-15T10:23:42;95963.66;;;11.21;81.16
52797;BME280;38666;43.348;12.584;2022-11-15T10:26:12;95967.50;;;11.31;79.60
52797;BME280;38666;43.348;12.584;2022-11-15T10:28:39;95958.78;;;10.54;85.44
52797;BME280;38666;43.348;12.584;2022-11-15T10:31:24;95945.09;;;10.68;85.04
52797;BME280;38666;43.348;12.584;2022-11-15T10:33:51;95945.00;;;10.94;83.94
52797;BME280;38666;43.348;12.584;2022-11-15T10:36:24;95940.81;;;10.45;88.61
52797;BME280;38666;43.348;12.584;2022-11-15T10:38:51;95938.41;;;10.95;83.51
52797;BME280;38666;43.348;12.584;2022-11-15T10:46:33;95923.91;;;11.05;83.04
52797;BME280;38666;43.348;12.584;2022-11-15T10:51:45;95917.72;;;10.83;84.65
52797;BME280;38666;43.348;12.584;2022-11-15T10:54:11;95910.69;;;10.89;84.19
52797;BME280;38666;43.348;12.584;2022-11-15T10:56:39;95904.44;;;10.92;83.73
52797;BME280;38666;43.348;12.584;2022-11-15T10:59:15;95891.97;;;10.91;85.46
52797;BME280;38666;43.348;12.584;2022-11-15T11:01:48;95892.63;;;11.10;85.06
52797;BME280;38666;43.348;12.584;2022-11-15T11:04:13;95885.38;;;11.53;84.65
52797;BME280;38666;43.348;12.584;2022-11-15T11:06:53;95886.09;;;11.64;81.27
52797;BME280;38666;43.348;12.584;2022-11-15T11:11:58;95875.97;;;11.54;79.91
52797;BME280;38666;43.348;12.584;2022-11-15T11:14:31;95877.59;;;11.48;80.90
52797;BME280;38666;43.348;12.584;2022-11-15T11:17:16;95873.88;;;11.16;82.60
52797;BME280;38666;43.348;12.584;2022-11-15T11:25:35;95866.22;;;10.85;88.16
52797;BME280;38666;43.348;12.584;2022-11-15T11:37:04;95848.59;;;10.93;85.49
52797;BME280;38666;43.348;12.584;2022-11-15T11:50:40;95851.53;;;10.24;94.90
52797;BME280;38666;43.348;12.584;2022-11-15T11:53:37;95854.66;;;10.19;96.85
52797;BME280;38666;43.348;12.584;2022-11-15T11:58:47;95832.00;;;10.40;95.21
52797;BME280;38666;43.348;12.584;2022-11-15T12:01:26;95839.84;;;10.34;94.07
52797;BME280;38666;43.348;12.584;2022-11-15T12:09:33;95827.34;;;10.37;83.64
52797;BME280;38666;43.348;12.584;2022-11-15T12:14:46;95813.28;;;10.46;74.89
52797;BME280;38666;43.348;12.584;2022-11-15T12:17:15;95817.19;;;10.41;75.92
52797;BME280;38666;43.348;12.584;2022-11-15T12:19:41;95806.66;;;10.43;77.00
52797;BME280;38666;43.348;12.584;2022-11-15T12:22:20;95814.91;;;10.29;76.13
52797;BME280;38666;43.348;12.584;2022-11-15T12:25:03;95807.09;;;10.31;76.75
52797;BME280;38666;43.348;12.584;2022-11-15T12:30:15;95802.41;;;10.31;76.46
52797;BME280;38666;43.348;12.584;2022-11-15T12:33:00;95807.09;;;10.31;76.25
52797;BME280;38666;43.348;12.584;2022-11-15T12:35:42;95808.66;;;10.28;79.13
52797;BME280;38666;43.348;12.584;2022-11-15T12:38:12;95794.59;;;10.30;78.16
52797;BME280;38666;43.348;12.584;2022-11-15T12:41:12;95800.06;;;10.26;79.94
52797;BME280;38666;43.348;12.584;2022-11-15T12:43:42;95784.47;;;10.27;79.75
52797;BME280;38666;43.348;12.584;2022-11-15T12:49:09;95786.78;;;10.39;79.66
52797;BME280;38666;43.348;12.584;2022-11-15T13:02:31;95765.00;;;10.17;77.02
52797;BME280;38666;43.348;12.584;2022-11-15T13:15:31;95768.13;;;10.19;79.63
52797;BME280;38666;43.348;12.584;2022-11-15T13:17:58;95771.25;;;10.21;79.99
52797;BME280;38666;43.348;12.584;2022-11-15T13:20:29;95766.59;;;10.18;80.22
52797;BME280;38666;43.348;12.584;2022-11-15T13:30:39;95754.19;;;9.95;80.26
52797;BME280;38666;43.348;12.584;2022-11-15T13:33:16;95757.28;;;9.97;80.35
52797;BME280;38666;43.348;12.584;2022-11-15T13:35:46;95748.75;;;9.81;81.28
52797;BME280;38666;43.348;12.584;2022-11-15T13:38:28;95754.97;;;9.85;83.05
52797;BME280;38666;43.348;12.584;2022-11-15T13:40:55;95745.19;;;10.06;79.83
52797;BME280;38666;43.348;12.584;2022-11-15T13:46:22;95735.84;;;9.99;81.59
52797;BME280;38666;43.348;12.584;2022-11-15T13:49:02;95729.97;;;10.05;81.28
52797;BME280;38666;43.348;12.584;2022-11-15T13:51:43;95735.09;;;9.95;82.88
52797;BME280;38666;43.348;12.584;2022-11-15T13:54:41;95730.81;;;9.87;83.91
52797;BME280;38666;43.348;12.584;2022-11-15T13:57:13;95732.41;;;9.73;84.01
52797;BME280;38666;43.348;12.584;2022-11-15T14:00:00;95737.44;;;9.79;83.24
52797;BME280;38666;43.348;12.584;2022-11-15T14:02:30;95739.78;;;9.84;82.39
52797;BME280;38666;43.348;12.584;2022-11-15T14:05:02;95733.56;;;9.72;82.18
52797;BME280;38666;43.348;12.584;2022-11-15T14:07:37;95725.00;;;9.70;83.36
52797;BME280;38666;43.348;12.584;2022-11-15T14:10:25;95730.06;;;9.79;80.98
52797;BME280;38666;43.348;12.584;2022-11-15T14:12:52;95728.13;;;9.65;81.68
52797;BME280;38666;43.348;12.584;2022-11-15T14:15:31;95718.00;;;9.55;83.37
52797;BME280;38666;43.348;12.584;2022-11-15T14:17:57;95716.84;;;9.52;82.27
52797;BME280;38666;43.348;12.584;2022-11-15T14:20:36;95724.66;;;9.43;84.74
52797;BME280;38666;43.348;12.584;2022-11-15T14:23:23;95714.16;;;9.41;84.12
52797;BME280;38666;43.348;12.584;2022-11-15T14:25:54;95718.00;;;9.47;82.96
52797;BME280;38666;43.348;12.584;2022-11-15T14:30:49;95701.31;;;9.27;86.41
52797;BME280;38666;43.348;12.584;2022-11-15T14:35:50;95702.47;;;9.30;85.99
52797;BME280;38666;43.348;12.584;2022-11-15T14:38:16;95691.19;;;9.27;85.47
52797;BME280;38666;43.348;12.584;2022-11-15T14:40:42;95697.41;;;9.32;84.82
52797;BME280;38666;43.348;12.584;2022-11-15T14:43:11;95688.06;;;9.25;86.72
52797;BME280;38666;43.348;12.584;2022-11-15T14:45:38;95691.19;;;9.27;87.34
52797;BME280;38666;43.348;12.584;2022-11-15T14:48:04;95688.09;;;9.18;88.45
52797;BME280;38666;43.348;12.584;2022-11-15T14:50:29;95671.34;;;9.16;89.20
52797;BME280;38666;43.348;12.584;2022-11-15T14:52:56;95667.44;;;9.17;90.20
52797;BME280;38666;43.348;12.584;2022-11-15T14:55:24;95667.81;;;9.26;90.83
52797;BME280;38666;43.348;12.584;2022-11-15T14:57:50;95671.72;;;9.25;92.21
52797;BME280;38666;43.348;12.584;2022-11-15T15:00:18;95668.22;;;9.29;92.34
52797;BME280;38666;43.348;12.584;2022-11-15T15:02:45;95663.94;;;9.31;91.89
52797;BME280;38666;43.348;12.584;2022-11-15T15:05:22;95661.97;;;9.32;92.53
52797;BME280;38666;43.348;12.584;2022-11-15T15:07:48;95662.34;;;9.41;91.89
52797;BME280;38666;43.348;12.584;2022-11-15T15:10:15;95649.13;;;9.39;92.25
52797;BME280;38666;43.348;12.584;2022-11-15T15:12:41;95640.16;;;9.35;93.52
52797;BME280;38666;43.348;12.584;2022-11-15T15:15:15;95637.44;;;9.28;93.66
52797;BME280;38666;43.348;12.584;2022-11-15T15:17:41;95637.47;;;9.21;93.29
52797;BME280;38666;43.348;12.584;2022-11-15T15:20:07;95637.50;;;9.13;93.99
52797;BME280;38666;43.348;12.584;2022-11-15T15:22:33;95639.03;;;9.25;92.30
52797;BME280;38666;43.348;12.584;2022-11-15T15:24:58;95642.94;;;9.10;91.20
52797;BME280;38666;43.348;12.584;2022-11-15T15:27:23;95639.84;;;9.00;92.07
52797;BME280;38666;43.348;12.584;2022-11-15T15:29:49;95656.19;;;9.04;93.66
52797;BME280;38666;43.348;12.584;2022-11-15T15:32:14;95637.09;;;9.04;95.02
52797;BME280;38666;43.348;12.584;2022-11-15T15:34:40;95642.56;;;9.15;94.82
52797;BME280;38666;43.348;12.584;2022-11-15T15:39:44;95642.56;;;9.00;98.72
52797;BME280;38666;43.348;12.584;2022-11-15T15:42:09;95643.72;;;8.99;99.24
52797;BME280;38666;43.348;12.584;2022-11-15T15:44:35;95635.53;;;8.99;99.12
52797;BME280;38666;43.348;12.584;2022-11-15T15:47:00;95638.66;;;9.09;98.11
52797;BME280;38666;43.348;12.584;2022-11-15T15:49:26;95611.03;;;9.07;97.08
52797;BME280;38666;43.348;12.584;2022-11-15T15:51:52;95602.41;;;9.26;95.96
52797;BME280;38666;43.348;12.584;2022-11-15T15:54:17;95608.69;;;9.16;96.38
52797;BME280;38666;43.348;12.584;2022-11-15T15:56:43;95597.03;;;8.97;99.91
52797;BME280;38666;43.348;12.584;2022-11-15T15:59:08;95597.41;;;8.99;100.00
52797;BME280;38666;43.348;12.584;2022-11-15T16:01:34;95589.63;;;9.01;99.63
52797;BME280;38666;43.348;12.584;2022-11-15T16:03:59;95585.34;;;9.00;99.61
52797;BME280;38666;43.348;12.584;2022-11-15T16:06:40;95587.69;;;9.09;96.94
52797;BME280;38666;43.348;12.584;2022-11-15T16:09:13;95596.97;;;9.26;95.18
52797;BME280;38666;43.348;12.584;2022-11-15T16:11:40;95598.56;;;9.17;95.76
52797;BME280;38666;43.348;12.584;2022-11-15T16:14:07;95593.13;;;9.17;96.74
52797;BME280;38666;43.348;12.584;2022-11-15T16:16:33;95595.44;;;9.11;96.79
52797;BME280;38666;43.348;12.584;2022-11-15T16:18:59;95597.78;;;9.09;98.52
52797;BME280;38666;43.348;12.584;2022-11-15T16:21:26;95595.88;;;8.98;98.94
52797;BME280;38666;43.348;12.584;2022-11-15T16:23:52;95592.75;;;8.96;99.35
52797;BME280;38666;43.348;12.584;2022-11-15T16:26:24;95598.97;;;8.93;99.89
52797;BME280;38666;43.348;12.584;2022-11-15T16:28:51;95598.59;;;8.98;98.80
52797;BME280;38666;43.348;12.584;2022-11-15T16:31:17;95592.75;;;9.03;99.38
52797;BME280;38666;43.348;12.584;2022-11-15T16:33:45;95585.34;;;9.08;100.00
52797;BME280;38666;43.348;12.584;2022-11-15T16:36:32;95589.22;;;9.14;100.00
52797;BME280;38666;43.348;12.584;2022-11-15T16:38:58;95589.59;;;9.20;99.70
52797;BME280;38666;43.348;12.584;2022-11-15T16:41:25;95590.38;;;9.27;97.65
52797;BME280;38666;43.348;12.584;2022-11-15T16:43:51;95595.03;;;9.23;97.52
52797;BME280;38666;43.348;12.584;2022-11-15T16:46:18;95585.31;;;9.22;98.58
52797;BME280;38666;43.348;12.584;2022-11-15T16:48:45;95586.88;;;9.23;99.23
52797;BME280;38666;43.348;12.584;2022-11-15T16:51:10;95574.44;;;9.15;99.76
52797;BME280;38666;43.348;12.584;2022-11-15T16:53:36;95582.22;;;9.20;100.00
52797;BME280;38666;43.348;12.584;2022-11-15T16:56:02;95579.88;;;9.22;100.00
52797;BME280;38666;43.348;12.584;2022-11-15T16:58:28;95586.09;;;9.19;100.00
52797;BME280;38666;43.348;12.584;2022-11-15T17:00:55;95581.44;;;9.16;100.00
52797;BME280;38666;43.348;12.584;2022-11-15T17:03:22;95576.75;;;9.20;100.00
52797;BME280;38666;43.348;12.584;2022-11-15T17:05:48;95566.25;;;9.19;100.00
52797;BME280;38666;43.348;12.584;2022-11-15T17:08:14;95564.28;;;9.26;100.00
52797;BME280;38666;43.348;12.584;2022-11-15T17:10:40;95568.94;;;9.26;99.83
52797;BME280;38666;43.348;12.584;2022-11-15T17:13:09;95557.28;;;9.25;100.00
52797;BME280;38666;43.348;12.584;2022-11-15T17:15:36;95561.09;;;9.46;98.38
52797;BME280;38666;43.348;12.584;2022-11-15T17:18:01;95558.72;;;9.56;96.85
52797;BME280;38666;43.348;12.584;2022-11-15T17:20:26;95547.03;;;9.55;96.79
52797;BME280;38666;43.348;12.584;2022-11-15T17:22:52;95557.59;;;9.42;98.15
52797;BME280;38666;43.348;12.584;2022-11-15T17:25:18;95554.53;;;9.29;98.66
52797;BME280;38666;43.348;12.584;2022-11-15T17:27:43;95547.91;;;9.30;98.66
52797;BME280;38666;43.348;12.584;2022-11-15T17:30:11;95551.81;;;9.33;99.46
52797;BME280;38666;43.348;12.584;2022-11-15T17:32:37;95550.22;;;9.39;98.65
52797;BME280;38666;43.348;12.584;2022-11-15T17:35:04;95542.03;;;9.46;98.33
52797;BME280;38666;43.348;12.584;2022-11-15T17:37:33;95531.94;;;9.39;99.76
52797;BME280;38666;43.348;12.584;2022-11-15T17:39:59;95540.13;;;9.29;100.00
52797;BME280;38666;43.348;12.584;2022-11-15T17:42:24;95541.28;;;9.35;100.00
52797;BME280;38666;43.348;12.584;2022-11-15T17:44:50;95545.97;;;9.31;100.00
52797;BME280;38666;43.348;12.584;2022-11-15T17:47:15;95535.47;;;9.33;100.00
52797;BME280;38666;43.348;12.584;2022-11-15T17:49:40;95530.00;;;9.33;100.00
52797;BME280;38666;43.348;12.584;2022-11-15T17:52:06;95534.28;;;9.34;100.00
52797;BME280;38666;43.348;12.584;2022-11-15T17:54:32;95531.56;;;9.34;100.00
52797;BME280;38666;43.348;12.584;2022-11-15T17:56:58;95514.41;;;9.37;100.00
52797;BME280;38666;43.348;12.584;2022-11-15T17:59:23;95518.69;;;9.38;100.00
52797;BME280;38666;43.348;12.584;2022-11-15T18:01:49;95526.06;;;9.48;100.00
52797;BME280;38666;43.348;12.584;2022-11-15T18:04:14;95521.41;;;9.45;100.00
52797;BME280;38666;43.348;12.584;2022-11-15T18:06:40;95516.34;;;9.44;100.00
52797;BME280;38666;43.348;12.584;2022-11-15T18:09:06;95513.66;;;9.36;100.00
52797;BME280;38666;43.348;12.584;2022-11-15T18:11:37;95517.53;;;9.35;100.00
52797;BME280;38666;43.348;12.584;2022-11-15T18:14:12;95531.56;;;9.34;100.00
52797;BME280;38666;43.348;12.584;2022-11-15T18:16:38;95531.16;;;9.35;100.00
52797;BME280;38666;43.348;12.584;2022-11-15T18:19:05;95531.59;;;9.23;100.00
52797;BME280;38666;43.348;12.584;2022-11-15T18:21:37;95530.00;;;9.33;100.00
52797;BME280;38666;43.348;12.584;2022-11-15T18:24:31;95523.38;;;9.34;100.00
52797;BME280;38666;43.348;12.584;2022-11-15T18:26:58;95519.44;;;9.42;100.00
52797;BME280;38666;43.348;12.584;2022-11-15T18:29:24;95514.38;;;9.44;100.00
52797;BME280;38666;43.348;12.584;2022-11-15T18:31:53;95506.63;;;9.39;100.00
52797;BME280;38666;43.348;12.584;2022-11-15T18:34:21;95512.09;;;9.32;100.00
52797;BME280;38666;43.348;12.584;2022-11-15T18:36:51;95511.69;;;9.30;100.00
52797;BME280;38666;43.348;12.584;2022-11-15T18:39:17;95505.09;;;9.31;100.00
52797;BME280;38666;43.348;12.584;2022-11-15T18:41:44;95511.72;;;9.26;100.00
52797;BME280;38666;43.348;12.584;2022-11-15T18:44:11;95505.09;;;9.31;100.00
52797;BME280;38666;43.348;12.584;2022-11-15T18:46:37;95514.41;;;9.33;100.00
52797;BME280;38666;43.348;12.584;2022-11-15T18:49:03;95508.59;;;9.31;100.00
52797;BME280;38666;43.348;12.584;2022-11-15T18:51:30;95495.75;;;9.28;100.00
